Airfield :
LOGIN :

Register | Disclaimer

   EN    FR    IT 

 










Legend :    VFR   Marginal VFR   IFR   Intensive IFR   Very Intensive IFR
Visi :
Ceiling :
>= 8 km
>= 3000ft
5 to 8 km
1000 to 3000 ft
1500m to 5 km
500 to 1000 ft
800 to 1500m
200 to 500 ft
< 800m
< 200 ft
Symbols :   Thunderstorms  Fog  Heavy snow  Heavy precipitations  Wind > 20 kt
SIGMETs :     Misc.  Thunderstorms  Icing  Turbulence  Mountain Waves  Volcanic Ashes







- Airport Elevation : 291 ft
- IATA code : ORY
- Download approach charts


LFPO - Paris-Orly

CURRENT METAR :
  • 112300Z 08003KT 7000 FEW005 03/02 Q1024 NOSIG

EXPIRED METARs :
  • 112230Z VRB02KT 7000 FEW007 03/03 Q1024 NOSIG
  • 112200Z VRB02KT 7000 MIFG FEW004 04/03 Q1024 NOSIG
  • 112130Z 15003KT 7000 R06/0900U MIFG FEW004 03/03 Q1024 NOSIG
  • 112100Z 00000KT 7000 R06/0300N MIFG NSC 04/04 Q1024 NOSIG
  • 112030Z 00000KT 7000 MIFG FEW008 SCT260 04/03 Q1024 NOSIG

TAF TAF LFPO
Valid from the 11 at 18:00 until the 13 at 00:00 UTC


111700Z 1118/1224 14005KT 9999 BKN040
TEMPO 1120/1210 4000 BR BKN006
PROB40
TEMPO 1122/1206 2500 BKN001
BECMG 1210/1212 BKN013
BECMG 1217/1219 BKN008
ATIS : +33 1 49 75 65 80
No reported NOTAMs for that airfield.



MET'MAP, your aeronautical weather chart ! - Copyright ORBIFLY December 2007 - Disclaimer

ORBIFLY MET'MAP TEAM :

Programming & Development : Alexandra Zaïnal
Concept & Development : Baudouin d'Aumeries
Co-Development & Prog : Marc-Olivier Méhu
Technical & hardware support : Manuel Goepfert

Contact : metmap@orbifly.com




SOURCES & CREDITS :

   NOAA